Time;durP1;ratioP1;P1;durP2;ratioP2;P2;SDS_P1;SDS_P2;PMS_P1;PMS_P2;Temp;Humidity;BMP_temperature;BMP_pressure;BME280_temperature;BME280_humidity;BME280_pressure;Samples;Min_cycle;Max_cycle;Signal;HPM_P1;HPM_P2
2022/03/12 00:01:48;;;;;;;17.20;11.23;;;;;;;;;;5102986;28;20259;-76
2022/03/12 00:04:16;;;;;;;13.23;10.97;;;;;;;;;;5112099;28;20226;-76
2022/03/12 00:06:47;;;;;;;12.73;10.77;;;;;;;;;;5111329;28;20207;-76
2022/03/12 00:09:14;;;;;;;11.77;10.57;;;;;;;;;;5106215;28;20237;-76
2022/03/12 00:11:45;;;;;;;13.53;10.83;;;;;;;;;;5095027;28;20231;-76
2022/03/12 00:14:13;;;;;;;11.63;9.83;;;;;;;;;;5112817;28;20232;-76
2022/03/12 00:16:43;;;;;;;12.67;11.00;;;;;;;;;;5112141;28;20285;-76
2022/03/12 00:22:07;;;;;;;12.20;9.87;;;;;;;;;;5190225;22;20313;-77
2022/03/12 00:24:34;;;;;;;12.93;10.20;;;;;;;;;;5150912;27;20225;-77
2022/03/12 00:27:02;;;;;;;13.57;9.93;;;;;;;;;;5151165;27;20310;-77
2022/03/12 00:29:44;;;;;;;12.40;10.10;;;;;;;;;;5136061;27;20190;-77
2022/03/12 00:32:16;;;;;;;11.17;9.07;;;;;;;;;;5133130;27;20244;-77
2022/03/12 00:34:46;;;;;;;12.20;9.70;;;;;;;;;;5149011;27;20247;-77
2022/03/12 00:37:14;;;;;;;12.93;9.43;;;;;;;;;;5152748;27;20202;-77
2022/03/12 00:39:44;;;;;;;11.93;9.63;;;;;;;;;;5140571;27;20198;-77
2022/03/12 00:42:15;;;;;;;12.63;9.77;;;;;;;;;;5134445;27;20202;-77
2022/03/12 00:44:42;;;;;;;11.27;9.47;;;;;;;;;;5135251;27;20318;-77
2022/03/12 00:47:09;;;;;;;11.63;9.77;;;;;;;;;;5147255;27;20248;-76
2022/03/12 00:49:38;;;;;;;13.63;9.73;;;;;;;;;;5137514;27;20222;-77
2022/03/12 00:52:06;;;;;;;12.23;9.83;;;;;;;;;;5140411;27;20206;-77
2022/03/12 00:54:44;;;;;;;12.13;10.27;;;;;;;;;;5148388;27;20209;-77
2022/03/12 00:57:12;;;;;;;11.90;9.47;;;;;;;;;;5135346;27;20199;-77
2022/03/12 00:59:39;;;;;;;13.23;9.63;;;;;;;;;;5146168;27;20199;-77
2022/03/12 01:02:10;;;;;;;12.33;9.67;;;;;;;;;;5140077;27;20203;-76
2022/03/12 01:04:38;;;;;;;13.43;10.43;;;;;;;;;;5141616;27;20666;-77
2022/03/12 01:07:05;;;;;;;13.80;10.60;;;;;;;;;;5153115;27;20694;-77
2022/03/12 01:09:33;;;;;;;12.80;9.37;;;;;;;;;;5141366;27;20293;-77
2022/03/12 01:12:00;;;;;;;12.00;9.73;;;;;;;;;;5135156;27;20271;-77
2022/03/12 01:14:46;;;;;;;11.50;9.23;;;;;;;;;;5146340;27;20194;-77
2022/03/12 01:17:14;;;;;;;13.20;10.40;;;;;;;;;;5143208;27;20289;-77
2022/03/12 01:19:43;;;;;;;12.03;9.70;;;;;;;;;;5136885;27;20281;-77
2022/03/12 01:22:18;;;;;;;12.33;9.83;;;;;;;;;;5133790;27;20234;-77
2022/03/12 01:24:48;;;;;;;11.73;9.40;;;;;;;;;;5135897;27;20304;-77
2022/03/12 01:27:16;;;;;;;12.37;9.70;;;;;;;;;;5150952;27;20209;-77
2022/03/12 01:29:45;;;;;;;12.20;9.40;;;;;;;;;;5147331;27;20252;-77
2022/03/12 01:32:13;;;;;;;11.47;9.53;;;;;;;;;;5144144;27;20206;-77
2022/03/12 01:34:40;;;;;;;12.93;9.90;;;;;;;;;;5153288;27;20304;-77
2022/03/12 01:37:09;;;;;;;12.27;10.03;;;;;;;;;;5151446;27;20233;-77
2022/03/12 01:39:36;;;;;;;11.33;9.60;;;;;;;;;;5134927;27;20226;-77
2022/03/12 01:42:09;;;;;;;12.60;10.23;;;;;;;;;;5139479;27;20222;-77
2022/03/12 01:44:38;;;;;;;11.07;9.67;;;;;;;;;;5133589;27;20218;-77
2022/03/12 01:47:10;;;;;;;12.93;9.77;;;;;;;;;;5142698;27;20198;-75
2022/03/12 01:49:38;;;;;;;13.57;9.43;;;;;;;;;;5140446;27;20289;-77
2022/03/12 01:52:07;;;;;;;11.33;9.50;;;;;;;;;;5133813;27;20212;-77
2022/03/12 01:54:36;;;;;;;11.87;9.47;;;;;;;;;;5133136;27;20204;-77
2022/03/12 01:57:04;;;;;;;10.63;9.07;;;;;;;;;;5133380;27;20213;-77
2022/03/12 01:59:34;;;;;;;11.40;9.50;;;;;;;;;;5136591;27;20695;-77
2022/03/12 02:02:02;;;;;;;11.10;9.13;;;;;;;;;;5132930;27;20211;-77
2022/03/12 02:04:29;;;;;;;11.87;8.40;;;;;;;;;;5135286;27;20194;-77
2022/03/12 02:06:58;;;;;;;11.07;9.27;;;;;;;;;;5145431;27;20194;-77
2022/03/12 02:09:26;;;;;;;11.30;8.57;;;;;;;;;;5136360;27;20218;-77
2022/03/12 02:11:55;;;;;;;10.70;9.17;;;;;;;;;;5132994;27;20318;-77
2022/03/12 02:14:23;;;;;;;10.73;8.70;;;;;;;;;;5134928;27;20691;-77
2022/03/12 02:16:51;;;;;;;12.17;9.03;;;;;;;;;;5134957;27;20199;-77
2022/03/12 02:19:19;;;;;;;11.80;9.63;;;;;;;;;;5132573;27;20293;-77
2022/03/12 02:21:50;;;;;;;11.33;9.30;;;;;;;;;;5132446;27;20232;-77
2022/03/12 02:24:20;;;;;;;11.10;8.57;;;;;;;;;;5127666;27;20205;-77
2022/03/12 02:26:48;;;;;;;11.97;9.10;;;;;;;;;;5125855;27;20252;-76
2022/03/12 02:29:20;;;;;;;10.40;9.27;;;;;;;;;;5132867;27;20237;-76
2022/03/12 02:31:49;;;;;;;11.13;8.97;;;;;;;;;;5132698;27;20225;-77
2022/03/12 02:34:20;;;;;;;11.47;9.03;;;;;;;;;;5150708;27;20205;-77
2022/03/12 02:36:48;;;;;;;11.50;9.60;;;;;;;;;;5151944;27;20202;-76
2022/03/12 02:39:15;;;;;;;10.20;8.70;;;;;;;;;;5136820;27;20661;-77
2022/03/12 02:41:44;;;;;;;10.47;9.13;;;;;;;;;;5147010;27;20312;-76
2022/03/12 02:44:18;;;;;;;10.40;8.63;;;;;;;;;;5149584;27;20233;-77
2022/03/12 02:47:06;;;;;;;11.10;8.70;;;;;;;;;;5151695;27;20225;-76
2022/03/12 02:49:38;;;;;;;11.40;9.30;;;;;;;;;;5135108;27;20237;-77
2022/03/12 02:52:05;;;;;;;10.83;9.07;;;;;;;;;;5152720;27;20205;-77
2022/03/12 02:54:32;;;;;;;10.70;8.47;;;;;;;;;;5151628;27;20198;-77
2022/03/12 02:57:02;;;;;;;10.33;8.73;;;;;;;;;;5139072;27;20202;-77
2022/03/12 02:59:30;;;;;;;11.47;9.30;;;;;;;;;;5139684;27;20198;-77
2022/03/12 03:02:00;;;;;;;9.63;8.17;;;;;;;;;;5134121;27;20233;-77
2022/03/12 03:04:27;;;;;;;11.27;8.73;;;;;;;;;;5141791;27;20202;-77
2022/03/12 03:07:00;;;;;;;11.40;8.53;;;;;;;;;;5134454;27;20332;-77
2022/03/12 03:09:27;;;;;;;11.00;8.87;;;;;;;;;;5135540;27;20194;-77
2022/03/12 03:11:56;;;;;;;10.17;8.87;;;;;;;;;;5145530;27;20220;-77
2022/03/12 03:14:26;;;;;;;11.37;8.07;;;;;;;;;;5134952;27;20214;-77
2022/03/12 03:16:54;;;;;;;10.20;8.40;;;;;;;;;;5136331;27;20197;-77
2022/03/12 03:19:25;;;;;;;10.53;8.97;;;;;;;;;;5155641;27;20275;-77
2022/03/12 03:21:53;;;;;;;10.43;8.83;;;;;;;;;;5122150;22;20224;-78
2022/03/12 03:24:21;;;;;;;10.40;8.70;;;;;;;;;;5099399;28;20206;-80
2022/03/12 03:26:52;;;;;;;10.90;8.90;;;;;;;;;;5095177;28;20219;-78
2022/03/12 03:29:21;;;;;;;9.53;8.57;;;;;;;;;;5094558;28;20207;-78
2022/03/12 03:31:50;;;;;;;10.37;8.80;;;;;;;;;;5087398;28;20228;-79
2022/03/12 03:34:17;;;;;;;11.30;9.00;;;;;;;;;;5093811;28;20270;-78
2022/03/12 03:36:45;;;;;;;10.23;9.13;;;;;;;;;;5088223;28;20210;-79
2022/03/12 03:39:12;;;;;;;11.53;8.83;;;;;;;;;;5089274;28;20199;-78
2022/03/12 03:41:39;;;;;;;10.67;8.17;;;;;;;;;;5095337;28;20234;-80
2022/03/12 03:44:06;;;;;;;9.53;8.13;;;;;;;;;;5094242;28;20246;-78
2022/03/12 03:46:35;;;;;;;9.70;8.63;;;;;;;;;;5093153;28;20322;-78
2022/03/12 03:49:04;;;;;;;10.03;8.87;;;;;;;;;;5093438;28;20250;-78
2022/03/12 03:51:32;;;;;;;11.60;9.23;;;;;;;;;;5093640;28;20228;-78
2022/03/12 03:53:59;;;;;;;10.23;9.17;;;;;;;;;;5093745;28;20229;-78
2022/03/12 03:56:26;;;;;;;10.63;8.60;;;;;;;;;;5093895;28;20211;-78
2022/03/12 03:58:53;;;;;;;11.17;9.07;;;;;;;;;;5093214;28;20210;-78
2022/03/12 04:01:22;;;;;;;9.77;8.67;;;;;;;;;;5093619;28;20306;-78
2022/03/12 04:03:51;;;;;;;10.77;9.00;;;;;;;;;;5092923;28;20208;-78
2022/03/12 04:06:21;;;;;;;13.07;9.23;;;;;;;;;;5093059;28;20310;-78
2022/03/12 04:08:49;;;;;;;10.70;9.30;;;;;;;;;;5086520;28;20200;-78
2022/03/12 04:11:17;;;;;;;10.93;9.03;;;;;;;;;;5093470;28;20228;-78
2022/03/12 04:13:45;;;;;;;9.80;8.50;;;;;;;;;;5092935;28;20202;-78
2022/03/12 04:16:13;;;;;;;10.87;8.90;;;;;;;;;;5093401;28;20546;-78
2022/03/12 04:18:40;;;;;;;13.20;9.53;;;;;;;;;;5092295;28;20200;-78
2022/03/12 04:21:08;;;;;;;10.70;8.60;;;;;;;;;;5095407;28;20246;-80
2022/03/12 04:23:37;;;;;;;10.33;8.40;;;;;;;;;;5093082;28;20204;-78
2022/03/12 04:26:04;;;;;;;10.73;8.33;;;;;;;;;;5094307;28;20227;-78
2022/03/12 04:28:32;;;;;;;11.40;9.87;;;;;;;;;;5091970;28;20203;-78
2022/03/12 04:31:00;;;;;;;10.10;9.10;;;;;;;;;;5092483;28;20259;-78
2022/03/12 04:33:28;;;;;;;10.80;8.87;;;;;;;;;;5091900;28;20207;-78
2022/03/12 04:35:56;;;;;;;13.50;9.13;;;;;;;;;;5092541;28;20196;-78
2022/03/12 04:38:23;;;;;;;11.03;9.27;;;;;;;;;;5092028;28;20204;-78
2022/03/12 04:40:51;;;;;;;11.77;9.67;;;;;;;;;;5092213;28;20230;-78
2022/03/12 04:43:18;;;;;;;10.47;8.73;;;;;;;;;;5092749;28;20287;-78
2022/03/12 04:45:47;;;;;;;10.90;8.60;;;;;;;;;;5092449;28;20220;-78
2022/03/12 04:48:15;;;;;;;10.90;8.70;;;;;;;;;;5091881;28;20311;-78
2022/03/12 04:50:42;;;;;;;10.83;8.73;;;;;;;;;;5091954;28;20298;-78
2022/03/12 04:53:10;;;;;;;11.20;9.03;;;;;;;;;;5092948;28;20295;-78
2022/03/12 04:55:37;;;;;;;11.20;8.90;;;;;;;;;;5089804;28;20200;-78
2022/03/12 04:58:07;;;;;;;11.90;9.43;;;;;;;;;;5089390;28;20202;-78
2022/03/12 05:00:36;;;;;;;13.23;8.83;;;;;;;;;;5090308;28;20806;-78
2022/03/12 05:03:05;;;;;;;12.00;8.70;;;;;;;;;;5091918;28;20204;-78
2022/03/12 05:05:32;;;;;;;11.87;8.83;;;;;;;;;;5091865;28;20208;-78
2022/03/12 05:07:59;;;;;;;10.83;8.50;;;;;;;;;;5091676;28;20295;-79
2022/03/12 05:10:28;;;;;;;9.97;8.30;;;;;;;;;;5091564;28;20288;-78
2022/03/12 05:12:58;;;;;;;10.83;9.27;;;;;;;;;;5091980;28;20508;-78
2022/03/12 05:15:27;;;;;;;11.40;9.13;;;;;;;;;;5087168;28;20225;-78
2022/03/12 05:17:54;;;;;;;11.53;9.00;;;;;;;;;;5088539;28;20203;-78
2022/03/12 05:20:23;;;;;;;11.03;9.13;;;;;;;;;;5086479;28;20218;-79
2022/03/12 05:22:50;;;;;;;12.50;9.13;;;;;;;;;;5090914;28;20203;-80
2022/03/12 05:25:18;;;;;;;11.67;8.87;;;;;;;;;;5091206;28;20292;-78
2022/03/12 05:27:46;;;;;;;11.07;9.00;;;;;;;;;;5089356;28;20227;-78
2022/03/12 05:30:13;;;;;;;12.70;9.00;;;;;;;;;;5088172;28;20238;-78
2022/03/12 05:32:43;;;;;;;9.07;8.17;;;;;;;;;;5083523;28;20202;-78
2022/03/12 05:35:10;;;;;;;11.80;9.03;;;;;;;;;;5085588;28;20287;-81
2022/03/12 05:37:38;;;;;;;10.67;8.90;;;;;;;;;;5089913;28;20199;-78
2022/03/12 05:40:07;;;;;;;10.17;8.53;;;;;;;;;;5088661;28;20225;-78
2022/03/12 05:42:34;;;;;;;9.97;8.50;;;;;;;;;;5089188;28;20337;-78
2022/03/12 05:45:02;;;;;;;10.57;8.83;;;;;;;;;;5090148;28;20196;-79
2022/03/12 05:47:34;;;;;;;12.33;8.80;;;;;;;;;;5091639;28;20224;-79
2022/03/12 05:50:05;;;;;;;13.57;9.70;;;;;;;;;;5095083;28;20203;-79
2022/03/12 05:52:32;;;;;;;10.30;8.73;;;;;;;;;;5095397;28;20207;-79
2022/03/12 05:55:00;;;;;;;12.73;9.60;;;;;;;;;;5095209;28;20211;-79
2022/03/12 05:57:31;;;;;;;10.97;9.37;;;;;;;;;;5094368;28;20219;-79
2022/03/12 06:00:01;;;;;;;11.17;9.07;;;;;;;;;;5094904;28;20295;-79
2022/03/12 06:02:32;;;;;;;11.57;9.47;;;;;;;;;;5095946;28;20708;-80
2022/03/12 06:04:59;;;;;;;15.47;9.27;;;;;;;;;;5095169;28;20231;-79
2022/03/12 06:07:29;;;;;;;12.53;8.73;;;;;;;;;;5092856;28;20231;-79
2022/03/12 06:09:56;;;;;;;11.07;8.83;;;;;;;;;;5095020;28;20204;-79
2022/03/12 06:12:25;;;;;;;10.60;9.03;;;;;;;;;;5095630;28;20204;-79
2022/03/12 06:14:56;;;;;;;10.43;8.97;;;;;;;;;;5095410;28;20199;-79
2022/03/12 06:17:25;;;;;;;10.60;8.43;;;;;;;;;;5088754;28;20273;-79
2022/03/12 06:19:52;;;;;;;11.70;9.03;;;;;;;;;;5090229;28;20206;-79
2022/03/12 06:22:19;;;;;;;10.30;8.40;;;;;;;;;;5089008;28;20218;-79
2022/03/12 06:24:49;;;;;;;10.43;8.63;;;;;;;;;;5088675;28;20203;-79
2022/03/12 06:27:21;;;;;;;11.20;9.17;;;;;;;;;;5087569;28;20219;-79
2022/03/12 06:29:48;;;;;;;10.87;8.63;;;;;;;;;;5084374;28;20203;-79
2022/03/12 06:32:15;;;;;;;10.30;8.60;;;;;;;;;;5091904;28;20226;-79
2022/03/12 06:34:43;;;;;;;12.63;9.63;;;;;;;;;;5091829;28;20199;-79
2022/03/12 06:37:10;;;;;;;13.63;9.70;;;;;;;;;;5096452;28;20260;-79
2022/03/12 06:39:37;;;;;;;9.53;8.53;;;;;;;;;;5096187;28;20196;-79
2022/03/12 06:42:07;;;;;;;13.87;9.23;;;;;;;;;;5100102;28;20239;-84
2022/03/12 06:44:37;;;;;;;11.70;9.37;;;;;;;;;;5096006;28;20192;-79
2022/03/12 06:47:09;;;;;;;10.67;9.50;;;;;;;;;;5095592;28;20230;-79
2022/03/12 06:49:36;;;;;;;9.93;8.87;;;;;;;;;;5091614;28;20200;-79
2022/03/12 06:52:03;;;;;;;9.93;8.53;;;;;;;;;;5096128;28;20220;-79
2022/03/12 06:54:30;;;;;;;11.20;9.00;;;;;;;;;;5094597;28;20282;-79
2022/03/12 06:56:57;;;;;;;10.97;8.77;;;;;;;;;;5094219;28;20228;-79
2022/03/12 06:59:26;;;;;;;9.73;8.60;;;;;;;;;;5098378;28;20206;-79
2022/03/12 07:01:53;;;;;;;9.50;8.50;;;;;;;;;;5113047;28;20210;-85
2022/03/12 07:04:21;;;;;;;10.40;8.90;;;;;;;;;;5096863;28;20203;-80
2022/03/12 07:06:49;;;;;;;10.13;9.07;;;;;;;;;;5097406;28;20241;-81
2022/03/12 07:09:16;;;;;;;10.70;8.30;;;;;;;;;;5092409;28;20680;-81
2022/03/12 07:11:43;;;;;;;13.30;9.17;;;;;;;;;;5098304;28;20242;-80
2022/03/12 07:14:11;;;;;;;11.83;8.60;;;;;;;;;;5094657;28;20248;-79
2022/03/12 07:16:39;;;;;;;12.07;8.93;;;;;;;;;;5095947;28;20255;-87
2022/03/12 07:19:07;;;;;;;12.40;9.40;;;;;;;;;;5097899;28;20239;-80
2022/03/12 07:21:34;;;;;;;11.17;9.47;;;;;;;;;;5099175;28;20299;-80
2022/03/12 07:24:01;;;;;;;11.83;9.23;;;;;;;;;;5099553;28;20207;-80
2022/03/12 07:26:28;;;;;;;11.97;9.13;;;;;;;;;;5100433;28;20220;-80
2022/03/12 07:28:55;;;;;;;11.07;8.97;;;;;;;;;;5096898;28;20204;-78
2022/03/12 07:31:25;;;;;;;10.20;8.97;;;;;;;;;;5095400;28;20307;-78
2022/03/12 07:33:54;;;;;;;11.93;9.33;;;;;;;;;;5097221;28;20195;-80
2022/03/12 07:36:21;;;;;;;11.63;9.33;;;;;;;;;;5092483;28;20235;-78
2022/03/12 07:38:48;;;;;;;11.53;9.40;;;;;;;;;;5092940;28;20206;-83
2022/03/12 07:41:15;;;;;;;12.47;9.80;;;;;;;;;;5100462;28;20227;-84
2022/03/12 07:43:43;;;;;;;11.07;9.47;;;;;;;;;;5092189;28;20196;-83
2022/03/12 07:46:37;;;;;;;11.07;9.20;;;;;;;;;;5094295;28;20245;-85
2022/03/12 07:49:05;;;;;;;15.33;8.83;;;;;;;;;;5089538;28;20196;-78
2022/03/12 07:51:33;;;;;;;10.13;8.20;;;;;;;;;;5078323;28;20213;-78
2022/03/12 07:54:04;;;;;;;12.00;9.53;;;;;;;;;;5091529;28;20204;-79
2022/03/12 07:56:34;;;;;;;10.53;9.23;;;;;;;;;;5089004;28;20199;-80
2022/03/12 07:59:01;;;;;;;11.60;9.87;;;;;;;;;;5093874;28;20196;-80
2022/03/12 08:01:29;;;;;;;16.60;11.40;;;;;;;;;;5093414;28;20247;-80
2022/03/12 08:04:06;;;;;;;12.63;9.80;;;;;;;;;;5087359;28;20231;-88
2022/03/12 08:06:44;;;;;;;11.80;9.03;;;;;;;;;;5090061;28;20196;-82
2022/03/12 08:09:11;;;;;;;13.07;9.30;;;;;;;;;;5089203;28;20300;-78
2022/03/12 08:11:39;;;;;;;12.17;9.37;;;;;;;;;;5084444;28;20220;-78
2022/03/12 08:14:15;;;;;;;12.00;9.10;;;;;;;;;;5100634;28;20267;-84
2022/03/12 08:16:44;;;;;;;12.33;9.70;;;;;;;;;;5095147;28;20268;-85
2022/03/12 08:19:11;;;;;;;11.17;9.90;;;;;;;;;;5080127;28;20304;-76
2022/03/12 08:21:45;;;;;;;11.30;9.33;;;;;;;;;;5080952;28;20232;-77
2022/03/12 08:24:15;;;;;;;11.37;9.30;;;;;;;;;;5089103;28;20286;-76
2022/03/12 08:26:45;;;;;;;11.27;9.67;;;;;;;;;;5085467;28;20227;-77
2022/03/12 08:29:12;;;;;;;12.17;9.03;;;;;;;;;;5092200;28;20203;-77
2022/03/12 08:31:40;;;;;;;13.93;9.03;;;;;;;;;;5090342;28;20248;-77
2022/03/12 08:34:07;;;;;;;12.43;10.23;;;;;;;;;;5091051;28;20269;-77
2022/03/12 08:36:35;;;;;;;13.33;9.70;;;;;;;;;;5091543;28;20257;-77
2022/03/12 08:39:04;;;;;;;12.90;10.90;;;;;;;;;;5094334;28;20195;-76
2022/03/12 08:41:33;;;;;;;13.23;10.40;;;;;;;;;;5088550;28;20211;-77
2022/03/12 08:44:00;;;;;;;12.20;10.10;;;;;;;;;;5092187;28;20196;-77
2022/03/12 08:46:28;;;;;;;11.63;9.50;;;;;;;;;;5089771;28;20295;-76
2022/03/12 08:48:55;;;;;;;11.47;9.83;;;;;;;;;;5093425;28;20203;-77
2022/03/12 08:51:22;;;;;;;12.17;10.27;;;;;;;;;;5088351;28;20312;-77
2022/03/12 08:53:49;;;;;;;10.67;9.57;;;;;;;;;;5091493;28;20295;-76
2022/03/12 08:56:18;;;;;;;10.73;9.57;;;;;;;;;;5091840;28;20434;-77
2022/03/12 08:58:47;;;;;;;12.00;9.97;;;;;;;;;;5087861;28;20284;-77
2022/03/12 09:01:16;;;;;;;11.27;9.60;;;;;;;;;;5090908;28;20243;-77
2022/03/12 09:03:43;;;;;;;14.67;10.70;;;;;;;;;;5092999;28;20204;-76
2022/03/12 09:06:11;;;;;;;12.40;10.17;;;;;;;;;;5090601;28;20294;-77
2022/03/12 09:08:38;;;;;;;12.90;10.10;;;;;;;;;;5091567;28;20226;-77
2022/03/12 09:11:06;;;;;;;11.63;10.10;;;;;;;;;;5092701;28;20219;-77
2022/03/12 09:13:35;;;;;;;13.73;10.67;;;;;;;;;;5092801;28;20257;-76
2022/03/12 09:16:05;;;;;;;12.00;10.57;;;;;;;;;;5092946;28;20242;-77
2022/03/12 09:18:32;;;;;;;12.77;11.43;;;;;;;;;;5091914;28;20192;-77
2022/03/12 09:21:00;;;;;;;11.80;10.17;;;;;;;;;;5120444;22;20238;-77
2022/03/12 09:23:38;;;;;;;12.60;10.77;;;;;;;;;;5046998;28;20244;-77
2022/03/12 09:26:05;;;;;;;13.40;11.07;;;;;;;;;;5041229;28;20292;-77
2022/03/12 09:28:33;;;;;;;12.57;10.57;;;;;;;;;;5032981;28;20229;-77
2022/03/12 09:31:01;;;;;;;13.93;11.10;;;;;;;;;;5036257;28;20256;-77
2022/03/12 09:33:29;;;;;;;13.87;11.60;;;;;;;;;;5031965;28;20680;-77
2022/03/12 09:35:57;;;;;;;13.43;11.57;;;;;;;;;;5032063;28;20296;-77
2022/03/12 09:38:25;;;;;;;14.90;11.40;;;;;;;;;;5031509;28;20202;-77
2022/03/12 09:40:53;;;;;;;13.77;11.33;;;;;;;;;;5032102;28;20237;-77
2022/03/12 09:43:22;;;;;;;16.83;11.90;;;;;;;;;;5032123;28;20260;-77
2022/03/12 09:46:00;;;;;;;13.93;10.90;;;;;;;;;;5031727;28;20270;-77
2022/03/12 09:48:29;;;;;;;15.70;11.80;;;;;;;;;;5030842;28;20226;-77
2022/03/12 09:50:56;;;;;;;14.87;11.00;;;;;;;;;;5031755;28;20206;-77
2022/03/12 09:53:27;;;;;;;12.97;11.37;;;;;;;;;;5031786;28;20210;-76
2022/03/12 09:55:54;;;;;;;16.57;12.13;;;;;;;;;;5031881;28;20305;-76
2022/03/12 09:58:24;;;;;;;15.27;12.43;;;;;;;;;;5030968;28;20296;-76
2022/03/12 10:00:52;;;;;;;15.20;11.90;;;;;;;;;;5034673;28;20297;-76
2022/03/12 10:03:19;;;;;;;14.70;12.20;;;;;;;;;;5031733;28;20232;-76
2022/03/12 10:05:52;;;;;;;13.97;11.57;;;;;;;;;;5030896;28;20209;-76
2022/03/12 10:08:20;;;;;;;16.27;12.27;;;;;;;;;;5031307;28;20313;-76
2022/03/12 10:10:50;;;;;;;15.07;12.23;;;;;;;;;;5031290;28;20300;-76
2022/03/12 10:13:20;;;;;;;14.53;12.10;;;;;;;;;;5031582;28;20213;-77
2022/03/12 10:15:48;;;;;;;15.27;12.17;;;;;;;;;;5031543;28;20198;-76
2022/03/12 10:18:15;;;;;;;15.77;12.57;;;;;;;;;;5031036;28;20209;-77
2022/03/12 10:20:43;;;;;;;14.87;11.63;;;;;;;;;;5031610;28;20278;-77
2022/03/12 10:23:11;;;;;;;15.63;12.63;;;;;;;;;;5031406;28;20319;-77
2022/03/12 10:25:39;;;;;;;16.20;11.77;;;;;;;;;;5030970;28;20260;-77
2022/03/12 10:28:06;;;;;;;15.10;12.77;;;;;;;;;;5030909;28;20230;-77
2022/03/12 10:30:34;;;;;;;15.37;12.77;;;;;;;;;;5031585;28;20243;-77
2022/03/12 10:33:02;;;;;;;14.97;12.27;;;;;;;;;;5031711;28;20229;-76
2022/03/12 10:35:34;;;;;;;15.37;12.93;;;;;;;;;;5031340;28;20205;-77
2022/03/12 10:38:01;;;;;;;15.47;12.07;;;;;;;;;;5030974;28;20212;-77
2022/03/12 10:40:31;;;;;;;15.13;12.77;;;;;;;;;;5031337;28;20220;-76
2022/03/12 10:43:00;;;;;;;14.37;12.87;;;;;;;;;;5031638;28;20228;-76
2022/03/12 10:45:28;;;;;;;14.20;12.70;;;;;;;;;;5031411;28;20216;-77
2022/03/12 10:47:57;;;;;;;16.87;12.03;;;;;;;;;;5030916;28;20264;-76
2022/03/12 10:50:26;;;;;;;14.97;12.53;;;;;;;;;;5031858;28;20259;-76
2022/03/12 10:52:54;;;;;;;14.27;12.73;;;;;;;;;;5025446;28;20238;-77
2022/03/12 10:55:26;;;;;;;13.73;12.33;;;;;;;;;;5031549;28;20279;-77
2022/03/12 10:57:59;;;;;;;14.77;12.70;;;;;;;;;;5030436;28;20210;-76
2022/03/12 11:00:26;;;;;;;13.80;12.37;;;;;;;;;;5031179;28;20304;-76
2022/03/12 11:02:55;;;;;;;16.57;13.17;;;;;;;;;;5031058;28;20253;-76
2022/03/12 11:05:27;;;;;;;14.07;12.50;;;;;;;;;;5029743;28;20216;-77
2022/03/12 11:08:07;;;;;;;15.87;12.70;;;;;;;;;;5030030;28;20226;-77
2022/03/12 11:10:36;;;;;;;16.57;12.10;;;;;;;;;;5030405;28;20198;-77
2022/03/12 11:13:05;;;;;;;14.50;12.80;;;;;;;;;;5029466;28;20226;-77
2022/03/12 11:15:33;;;;;;;14.17;12.67;;;;;;;;;;5029930;28;20228;-77
2022/03/12 11:18:05;;;;;;;12.73;11.43;;;;;;;;;;5030472;28;20264;-77
2022/03/12 11:20:36;;;;;;;15.03;11.80;;;;;;;;;;5030652;28;20293;-77
2022/03/12 11:23:08;;;;;;;14.80;12.17;;;;;;;;;;5032207;28;20237;-77
2022/03/12 11:25:37;;;;;;;18.20;12.50;;;;;;;;;;5034307;28;20275;-77
2022/03/12 11:28:18;;;;;;;14.13;12.63;;;;;;;;;;5034365;28;20232;-76
2022/03/12 11:30:45;;;;;;;15.43;12.80;;;;;;;;;;5037325;28;20206;-77
2022/03/12 11:33:12;;;;;;;14.27;12.33;;;;;;;;;;5034493;28;20225;-76
2022/03/12 11:35:45;;;;;;;12.53;11.23;;;;;;;;;;5034446;28;20664;-76
2022/03/12 11:38:17;;;;;;;13.73;12.13;;;;;;;;;;5033644;28;20288;-76
2022/03/12 11:40:46;;;;;;;14.77;12.20;;;;;;;;;;5034195;28;20229;-76
2022/03/12 11:43:26;;;;;;;12.33;11.13;;;;;;;;;;5034305;28;20300;-76
2022/03/12 11:45:59;;;;;;;13.50;11.83;;;;;;;;;;5033761;28;20209;-76
2022/03/12 11:48:27;;;;;;;12.00;10.37;;;;;;;;;;5033189;28;20321;-76
2022/03/12 11:50:56;;;;;;;11.87;10.60;;;;;;;;;;5033728;28;20268;-76
2022/03/12 11:53:23;;;;;;;14.07;11.13;;;;;;;;;;5034123;28;20213;-76
2022/03/12 11:55:51;;;;;;;11.70;10.47;;;;;;;;;;5033800;28;20205;-77
2022/03/12 11:58:19;;;;;;;12.43;10.10;;;;;;;;;;5033239;28;20739;-76
2022/03/12 12:00:48;;;;;;;11.63;10.43;;;;;;;;;;5033350;28;20293;-77
2022/03/12 12:03:16;;;;;;;12.00;10.80;;;;;;;;;;5033279;28;20206;-76
2022/03/12 12:05:45;;;;;;;13.87;11.20;;;;;;;;;;5032605;28;20272;-76
2022/03/12 12:08:14;;;;;;;11.30;10.07;;;;;;;;;;5033013;28;20287;-76
2022/03/12 12:10:42;;;;;;;13.33;10.53;;;;;;;;;;5033439;28;20209;-76
2022/03/12 12:13:10;;;;;;;10.70;9.60;;;;;;;;;;5033223;28;20228;-76
2022/03/12 12:15:39;;;;;;;10.50;8.68;;;;;;;;;;5033502;28;20209;-77
2022/03/12 12:18:09;;;;;;;10.52;8.48;;;;;;;;;;5032768;28;20197;-78
2022/03/12 12:20:36;;;;;;;9.10;8.20;;;;;;;;;;5033832;28;20284;-77
2022/03/12 12:23:04;;;;;;;10.30;9.30;;;;;;;;;;5032911;28;20233;-76
2022/03/12 12:25:34;;;;;;;10.40;8.73;;;;;;;;;;5033519;28;20213;-76
2022/03/12 12:28:01;;;;;;;10.07;8.82;;;;;;;;;;5032520;28;20233;-75
2022/03/12 12:30:42;;;;;;;10.13;9.13;;;;;;;;;;5033188;28;20288;-75
2022/03/12 12:33:19;;;;;;;9.48;7.88;;;;;;;;;;5027758;28;20225;-76
2022/03/12 12:35:46;;;;;;;10.45;8.65;;;;;;;;;;5033393;28;20300;-77
2022/03/12 12:38:14;;;;;;;10.60;9.10;;;;;;;;;;5032412;28;20410;-76
2022/03/12 12:40:45;;;;;;;9.57;8.57;;;;;;;;;;5033134;28;20233;-77
2022/03/12 12:43:14;;;;;;;9.35;8.30;;;;;;;;;;5033282;28;20276;-76
2022/03/12 12:46:12;;;;;;;10.25;8.32;;;;;;;;;;5033121;28;20217;-76
2022/03/12 12:48:43;;;;;;;9.35;8.27;;;;;;;;;;4984155;28;20219;-76
2022/03/12 12:51:12;;;;;;;8.68;7.40;;;;;;;;;;5022498;28;20240;-78
2022/03/12 12:53:40;;;;;;;9.50;8.57;;;;;;;;;;5032419;28;20212;-75
2022/03/12 12:56:21;;;;;;;9.18;8.20;;;;;;;;;;5032990;28;20267;-76
2022/03/12 12:58:49;;;;;;;8.75;7.85;;;;;;;;;;5032214;28;20206;-76
2022/03/12 13:01:18;;;;;;;11.32;7.70;;;;;;;;;;5032671;28;20283;-76
2022/03/12 13:03:50;;;;;;;7.90;7.10;;;;;;;;;;5032607;28;20213;-76
2022/03/12 13:06:32;;;;;;;9.30;7.60;;;;;;;;;;5031024;28;20202;-76
2022/03/12 13:09:02;;;;;;;7.82;6.97;;;;;;;;;;5032529;28;20238;-77
2022/03/12 13:11:30;;;;;;;7.03;6.33;;;;;;;;;;5032534;28;20236;-76
2022/03/12 13:13:58;;;;;;;7.32;6.63;;;;;;;;;;5032934;28;20265;-77
2022/03/12 13:16:25;;;;;;;7.82;7.03;;;;;;;;;;5032590;28;20209;-75
2022/03/12 13:18:54;;;;;;;7.30;6.60;;;;;;;;;;5031828;28;20264;-77
2022/03/12 13:21:28;;;;;;;9.20;7.18;;;;;;;;;;5032259;28;20230;-77
2022/03/12 13:23:55;;;;;;;8.55;7.70;;;;;;;;;;5032515;28;20244;-77
2022/03/12 13:26:26;;;;;;;8.88;7.97;;;;;;;;;;5032604;28;20201;-77
2022/03/12 13:28:55;;;;;;;8.90;7.72;;;;;;;;;;5031592;28;20225;-75
2022/03/12 13:31:27;;;;;;;7.65;6.85;;;;;;;;;;5032133;28;20249;-77
2022/03/12 13:34:03;;;;;;;8.25;7.45;;;;;;;;;;5032109;28;20308;-77
2022/03/12 13:36:31;;;;;;;9.45;8.55;;;;;;;;;;5026533;28;20263;-76
2022/03/12 13:39:00;;;;;;;8.68;7.78;;;;;;;;;;5032122;28;20209;-77
2022/03/12 13:41:27;;;;;;;7.93;7.13;;;;;;;;;;5032321;28;20226;-77
2022/03/12 13:43:55;;;;;;;7.68;6.93;;;;;;;;;;5032632;28;20260;-77
2022/03/12 13:46:23;;;;;;;7.50;6.80;;;;;;;;;;5031919;28;20237;-77
2022/03/12 13:49:03;;;;;;;8.57;7.45;;;;;;;;;;5031510;28;20291;-77
2022/03/12 13:51:31;;;;;;;8.82;7.68;;;;;;;;;;5032423;28;20287;-77
2022/03/12 13:53:59;;;;;;;8.73;7.90;;;;;;;;;;5031958;28;20289;-77
2022/03/12 13:56:28;;;;;;;9.13;8.23;;;;;;;;;;5031970;28;20242;-75
2022/03/12 13:58:57;;;;;;;10.02;8.55;;;;;;;;;;5030757;28;20221;-77
2022/03/12 14:01:31;;;;;;;8.40;7.47;;;;;;;;;;5031754;28;20229;-76
2022/03/12 14:03:59;;;;;;;8.93;8.00;;;;;;;;;;5031379;28;20611;-76
2022/03/12 14:06:35;;;;;;;8.60;7.70;;;;;;;;;;5030750;28;20217;-77
2022/03/12 14:09:03;;;;;;;9.45;8.23;;;;;;;;;;5031574;28;20317;-75
2022/03/12 14:11:35;;;;;;;8.60;7.47;;;;;;;;;;5031480;28;20226;-76
2022/03/12 14:14:03;;;;;;;8.45;7.60;;;;;;;;;;5031868;28;20205;-77
2022/03/12 14:16:31;;;;;;;8.68;7.80;;;;;;;;;;5031309;28;20248;-75
2022/03/12 14:19:00;;;;;;;8.90;7.63;;;;;;;;;;5031218;28;20202;-75
2022/03/12 14:21:40;;;;;;;8.63;7.82;;;;;;;;;;5031216;28;20233;-76
2022/03/12 14:24:28;;;;;;;8.70;7.75;;;;;;;;;;5031904;28;20217;-76
2022/03/12 14:26:56;;;;;;;8.07;7.28;;;;;;;;;;5026524;28;20217;-76
2022/03/12 14:29:25;;;;;;;8.38;7.28;;;;;;;;;;5031442;28;20226;-76
2022/03/12 14:31:54;;;;;;;8.98;7.68;;;;;;;;;;5031448;28;20230;-76
2022/03/12 14:34:21;;;;;;;8.85;7.43;;;;;;;;;;5031778;28;20201;-76
2022/03/12 14:36:51;;;;;;;8.52;7.72;;;;;;;;;;5031228;28;20210;-76
2022/03/12 14:39:20;;;;;;;9.07;8.18;;;;;;;;;;5031802;28;20202;-76
2022/03/12 14:41:49;;;;;;;8.93;8.00;;;;;;;;;;5031459;28;20280;-76
2022/03/12 14:44:16;;;;;;;8.05;7.32;;;;;;;;;;5031521;28;20209;-76